URO802 KBUF-CYQB
Flight info
| Callsign | URO802 |
|---|---|
| Flight time | 1h 1m |
| Altitude | 37000 |
| Route | EHMAN DCT HENDI DCT ART DCT LETUS DCT SINRO PESAC4 |
| Aircraft | A346/H-SDE2E3FGHIJ3J4J5M1RWXY/LB1D1 |
Departure
| Time | 2026-05-08 01:51 |
|---|---|
| Airport | Buffalo Niagara International Airport (KBUF) |
Arrival
| Time | 2026-05-08 02:52 |
|---|---|
| Airport | Quebec Jean Lesage International Airport (CYQB) |
| Time | Latitude | Longitude | Altitude | Speed | Heading |
|---|---|---|---|---|---|
| 2026-05-08 01:33 | 42.93959 | -78.74112 | 726 ft | 0 kts | 269° |
| 2026-05-08 01:43 | 42.93959 | -78.74108 | 727 ft | 0 kts | 269° |
| 2026-05-08 01:43 | 42.93960 | -78.74075 | 729 ft | 0 kts | 268° |
| 2026-05-08 01:44 | 42.93965 | -78.74050 | 728 ft | 1 kts | 232° |
| 2026-05-08 01:44 | 42.93980 | -78.74038 | 729 ft | 3 kts | 193° |
| 2026-05-08 01:44 | 42.93989 | -78.74037 | 728 ft | 0 kts | 182° |
| 2026-05-08 01:44 | 42.93988 | -78.74037 | 728 ft | 0 kts | 182° |
| 2026-05-08 01:45 | 42.93979 | -78.74037 | 729 ft | 3 kts | 182° |
| 2026-05-08 01:46 | 42.93938 | -78.74033 | 729 ft | 7 kts | 158° |
| 2026-05-08 01:46 | 42.93905 | -78.73951 | 724 ft | 12 kts | 95° |
| 2026-05-08 01:46 | 42.93872 | -78.73848 | 726 ft | 14 kts | 149° |
| 2026-05-08 01:46 | 42.93774 | -78.73787 | 725 ft | 16 kts | 140° |
| 2026-05-08 01:47 | 42.93716 | -78.73646 | 727 ft | 18 kts | 115° |
| 2026-05-08 01:47 | 42.93666 | -78.73483 | 728 ft | 18 kts | 96° |
| 2026-05-08 01:47 | 42.93659 | -78.73301 | 727 ft | 20 kts | 84° |
| 2026-05-08 01:48 | 42.93783 | -78.73094 | 727 ft | 15 kts | 46° |
| 2026-05-08 01:48 | 42.93868 | -78.72981 | 726 ft | 21 kts | 44° |
| 2026-05-08 01:48 | 42.94017 | -78.72787 | 724 ft | 35 kts | 44° |
| 2026-05-08 01:48 | 42.94191 | -78.72559 | 726 ft | 34 kts | 44° |
| 2026-05-08 01:49 | 42.94361 | -78.72338 | 728 ft | 34 kts | 44° |
| 2026-05-08 01:49 | 42.94531 | -78.72115 | 727 ft | 35 kts | 44° |
| 2026-05-08 01:49 | 42.94705 | -78.71886 | 727 ft | 33 kts | 43° |
| 2026-05-08 01:49 | 42.94817 | -78.71841 | 730 ft | 16 kts | 321° |
| 2026-05-08 01:50 | 42.94789 | -78.71979 | 725 ft | 21 kts | 224° |
| 2026-05-08 01:50 | 42.94538 | -78.72311 | 728 ft | 81 kts | 224° |
| 2026-05-08 01:50 | 42.93989 | -78.73030 | 725 ft | 136 kts | 224° |
| 2026-05-08 01:50 | 42.93199 | -78.74038 | 894 ft | 163 kts | 224° |
| 2026-05-08 01:51 | 42.92344 | -78.75090 | 1478 ft | 166 kts | 225° |
| 2026-05-08 01:51 | 42.91485 | -78.76136 | 2130 ft | 170 kts | 225° |
| 2026-05-08 01:51 | 42.90551 | -78.77271 | 2501 ft | 185 kts | 223° |
| 2026-05-08 01:51 | 42.89365 | -78.78094 | 2852 ft | 208 kts | 192° |
| 2026-05-08 01:52 | 42.87863 | -78.77797 | 3185 ft | 233 kts | 158° |
| 2026-05-08 01:52 | 42.86573 | -78.76312 | 3528 ft | 258 kts | 128° |
| 2026-05-08 01:52 | 42.85568 | -78.74156 | 4035 ft | 275 kts | 121° |
| 2026-05-08 01:52 | 42.84948 | -78.71640 | 4739 ft | 284 kts | 91° |
| 2026-05-08 01:53 | 42.85405 | -78.69051 | 5535 ft | 283 kts | 55° |
| 2026-05-08 01:53 | 42.86733 | -78.67115 | 6389 ft | 280 kts | 33° |
| 2026-05-08 01:53 | 42.88323 | -78.65534 | 7211 ft | 283 kts | 31° |
| 2026-05-08 01:53 | 42.89931 | -78.63950 | 8048 ft | 288 kts | 32° |
| 2026-05-08 01:54 | 42.91533 | -78.62271 | 8903 ft | 292 kts | 34° |
| 2026-05-08 01:54 | 42.93118 | -78.60515 | 9824 ft | 296 kts | 36° |
| 2026-05-08 01:54 | 42.94723 | -78.58675 | 10611 ft | 303 kts | 36° |
| 2026-05-08 01:54 | 42.96371 | -78.56755 | 11104 ft | 319 kts | 37° |
| 2026-05-08 01:55 | 42.98104 | -78.54715 | 11543 ft | 337 kts | 38° |
| 2026-05-08 01:55 | 42.99291 | -78.53308 | 11900 ft | 346 kts | 38° |
| 2026-05-08 01:55 | 43.01130 | -78.51120 | 12705 ft | 351 kts | 38° |
| 2026-05-08 01:55 | 43.02979 | -78.48913 | 13591 ft | 354 kts | 38° |
| 2026-05-08 01:56 | 43.04849 | -78.46680 | 14362 ft | 358 kts | 38° |
| 2026-05-08 01:56 | 43.06729 | -78.44430 | 15098 ft | 362 kts | 38° |
| 2026-05-08 01:56 | 43.08678 | -78.42099 | 15892 ft | 366 kts | 38° |
| 2026-05-08 01:56 | 43.10623 | -78.39772 | 16678 ft | 369 kts | 38° |
| 2026-05-08 01:57 | 43.12559 | -78.37418 | 17423 ft | 374 kts | 41° |
| 2026-05-08 01:57 | 43.14270 | -78.34740 | 18171 ft | 380 kts | 51° |
| 2026-05-08 01:57 | 43.15663 | -78.31621 | 18824 ft | 386 kts | 60° |
| 2026-05-08 01:57 | 43.16858 | -78.28287 | 19474 ft | 390 kts | 63° |
| 2026-05-08 01:58 | 43.18015 | -78.24902 | 20127 ft | 394 kts | 63° |
| 2026-05-08 01:58 | 43.19188 | -78.21470 | 20788 ft | 398 kts | 63° |
| 2026-05-08 01:58 | 43.20375 | -78.18026 | 21447 ft | 401 kts | 62° |
| 2026-05-08 01:59 | 43.21208 | -78.15624 | 21918 ft | 403 kts | 62° |
| 2026-05-08 01:59 | 43.22430 | -78.12111 | 22585 ft | 407 kts | 62° |
| 2026-05-08 01:59 | 43.23672 | -78.08551 | 23243 ft | 410 kts | 62° |
| 2026-05-08 01:59 | 43.24893 | -78.05055 | 23830 ft | 413 kts | 62° |
| 2026-05-08 02:00 | 43.26146 | -78.01463 | 24305 ft | 418 kts | 62° |
| 2026-05-08 02:00 | 43.27415 | -77.97825 | 24738 ft | 424 kts | 62° |
| 2026-05-08 02:00 | 43.28696 | -77.94147 | 25184 ft | 430 kts | 62° |
| 2026-05-08 02:00 | 43.30011 | -77.90368 | 25622 ft | 436 kts | 62° |
| 2026-05-08 02:01 | 43.31334 | -77.86560 | 26060 ft | 441 kts | 62° |
| 2026-05-08 02:01 | 43.32664 | -77.82724 | 26478 ft | 447 kts | 62° |
| 2026-05-08 02:01 | 43.34009 | -77.78841 | 26917 ft | 453 kts | 62° |
| 2026-05-08 02:01 | 43.35370 | -77.74906 | 27349 ft | 458 kts | 62° |
| 2026-05-08 02:02 | 43.36751 | -77.70908 | 27763 ft | 464 kts | 62° |
| 2026-05-08 02:02 | 43.38123 | -77.66933 | 28162 ft | 469 kts | 62° |
| 2026-05-08 02:02 | 43.39538 | -77.62823 | 28577 ft | 475 kts | 62° |
| 2026-05-08 02:02 | 43.40963 | -77.58682 | 28976 ft | 480 kts | 62° |
| 2026-05-08 02:03 | 43.42398 | -77.54503 | 29369 ft | 485 kts | 62° |
| 2026-05-08 02:03 | 43.43850 | -77.50268 | 29789 ft | 490 kts | 62° |
| 2026-05-08 02:03 | 43.45319 | -77.45979 | 30157 ft | 495 kts | 62° |
| 2026-05-08 02:03 | 43.46798 | -77.41651 | 30488 ft | 500 kts | 63° |
| 2026-05-08 02:04 | 43.48284 | -77.37299 | 30848 ft | 503 kts | 63° |
| 2026-05-08 02:04 | 43.49776 | -77.32922 | 31203 ft | 506 kts | 63° |
| 2026-05-08 02:04 | 43.51279 | -77.28503 | 31568 ft | 510 kts | 63° |
| 2026-05-08 02:04 | 43.52769 | -77.24112 | 31920 ft | 513 kts | 63° |
| 2026-05-08 02:05 | 43.54317 | -77.19547 | 32247 ft | 517 kts | 63° |
| 2026-05-08 02:05 | 43.55825 | -77.15091 | 32583 ft | 520 kts | 63° |
| 2026-05-08 02:05 | 43.57359 | -77.10553 | 32915 ft | 524 kts | 63° |
| 2026-05-08 02:05 | 43.58903 | -77.05974 | 33338 ft | 524 kts | 63° |
| 2026-05-08 02:06 | 43.60441 | -77.01406 | 33837 ft | 524 kts | 63° |
| 2026-05-08 02:06 | 43.61992 | -76.96790 | 34257 ft | 524 kts | 63° |
| 2026-05-08 02:06 | 43.63525 | -76.92225 | 34642 ft | 523 kts | 63° |
| 2026-05-08 02:06 | 43.65053 | -76.87665 | 35030 ft | 522 kts | 63° |
| 2026-05-08 02:07 | 43.66660 | -76.82862 | 35414 ft | 521 kts | 63° |
| 2026-05-08 02:07 | 43.68185 | -76.78294 | 35701 ft | 522 kts | 63° |
| 2026-05-08 02:07 | 43.69723 | -76.73682 | 35939 ft | 524 kts | 64° |
| 2026-05-08 02:07 | 43.71257 | -76.69072 | 36167 ft | 525 kts | 64° |
| 2026-05-08 02:08 | 43.72770 | -76.64518 | 36384 ft | 526 kts | 64° |
| 2026-05-08 02:08 | 43.74295 | -76.59919 | 36618 ft | 527 kts | 64° |
| 2026-05-08 02:08 | 43.75857 | -76.55200 | 36837 ft | 528 kts | 64° |
| 2026-05-08 02:08 | 43.77406 | -76.50515 | 36901 ft | 530 kts | 64° |
| 2026-05-08 02:09 | 43.80453 | -76.41267 | 36901 ft | 530 kts | 64° |
| 2026-05-08 02:09 | 43.83583 | -76.32004 | 36903 ft | 530 kts | 61° |
| 2026-05-08 02:10 | 43.87337 | -76.23146 | 36904 ft | 529 kts | 55° |
| 2026-05-08 02:10 | 43.91477 | -76.14705 | 36905 ft | 528 kts | 50° |
| 2026-05-08 02:11 | 43.96285 | -76.07017 | 36908 ft | 525 kts | 41° |
| 2026-05-08 02:11 | 44.01808 | -76.00433 | 36912 ft | 520 kts | 32° |
| 2026-05-08 02:12 | 44.07840 | -75.94841 | 36910 ft | 517 kts | 28° |
| 2026-05-08 02:12 | 44.13890 | -75.89477 | 36875 ft | 518 kts | 28° |
| 2026-05-08 02:13 | 44.19965 | -75.84020 | 36874 ft | 518 kts | 28° |
| 2026-05-08 02:13 | 44.26052 | -75.78500 | 36870 ft | 518 kts | 29° |
| 2026-05-08 02:14 | 44.32156 | -75.72941 | 36861 ft | 518 kts | 29° |
| 2026-05-08 02:14 | 44.38264 | -75.67368 | 36865 ft | 526 kts | 29° |
| 2026-05-08 02:15 | 44.43859 | -75.62252 | 36865 ft | 535 kts | 29° |
| 2026-05-08 02:15 | 44.50093 | -75.56530 | 36861 ft | 537 kts | 29° |
| 2026-05-08 02:16 | 44.56377 | -75.50746 | 36862 ft | 537 kts | 30° |
| 2026-05-08 02:16 | 44.62423 | -75.44479 | 36861 ft | 539 kts | 37° |
| 2026-05-08 02:17 | 44.67954 | -75.37263 | 36861 ft | 542 kts | 43° |
| 2026-05-08 02:17 | 44.73192 | -75.29662 | 36858 ft | 543 kts | 43° |
| 2026-05-08 02:18 | 44.78434 | -75.22003 | 36860 ft | 543 kts | 43° |
| 2026-05-08 02:18 | 44.83701 | -75.14333 | 36871 ft | 543 kts | 43° |
| 2026-05-08 02:19 | 44.88817 | -75.06883 | 36873 ft | 543 kts | 43° |
| 2026-05-08 02:19 | 44.94077 | -74.99210 | 36878 ft | 543 kts | 43° |
| 2026-05-08 02:20 | 44.99344 | -74.91505 | 36879 ft | 543 kts | 44° |
| 2026-05-08 02:20 | 45.04630 | -74.83750 | 36873 ft | 543 kts | 44° |
| 2026-05-08 02:21 | 45.09879 | -74.76027 | 36872 ft | 542 kts | 44° |
| 2026-05-08 02:21 | 45.15130 | -74.68279 | 36857 ft | 542 kts | 44° |
| 2026-05-08 02:22 | 45.20369 | -74.60528 | 36850 ft | 542 kts | 44° |
| 2026-05-08 02:22 | 45.25631 | -74.52721 | 36842 ft | 542 kts | 44° |
| 2026-05-08 02:23 | 45.30627 | -74.45286 | 36840 ft | 542 kts | 44° |
| 2026-05-08 02:23 | 45.35905 | -74.37411 | 36839 ft | 542 kts | 44° |
| 2026-05-08 02:24 | 45.41159 | -74.29547 | 36837 ft | 543 kts | 44° |
| 2026-05-08 02:24 | 45.43732 | -74.25689 | 36628 ft | 543 kts | 44° |
| 2026-05-08 02:24 | 45.46354 | -74.21751 | 36288 ft | 540 kts | 44° |
| 2026-05-08 02:25 | 45.49051 | -74.17692 | 35822 ft | 537 kts | 44° |
| 2026-05-08 02:25 | 45.51674 | -74.13740 | 35210 ft | 537 kts | 44° |
| 2026-05-08 02:25 | 45.54296 | -74.09785 | 34599 ft | 538 kts | 44° |
| 2026-05-08 02:25 | 45.56892 | -74.05863 | 33959 ft | 538 kts | 44° |
| 2026-05-08 02:26 | 45.59492 | -74.01930 | 33231 ft | 538 kts | 44° |
| 2026-05-08 02:26 | 45.62495 | -73.97379 | 32430 ft | 536 kts | 45° |
| 2026-05-08 02:26 | 45.65119 | -73.93396 | 31771 ft | 534 kts | 45° |
| 2026-05-08 02:26 | 45.67526 | -73.89737 | 31152 ft | 532 kts | 45° |
| 2026-05-08 02:27 | 45.70343 | -73.85450 | 30441 ft | 529 kts | 45° |
| 2026-05-08 02:27 | 45.72874 | -73.81591 | 29769 ft | 527 kts | 45° |
| 2026-05-08 02:27 | 45.75397 | -73.77739 | 29020 ft | 523 kts | 45° |
| 2026-05-08 02:27 | 45.77897 | -73.73916 | 28379 ft | 518 kts | 45° |
| 2026-05-08 02:28 | 45.80400 | -73.70083 | 27963 ft | 509 kts | 45° |
| 2026-05-08 02:28 | 45.82861 | -73.66311 | 27515 ft | 502 kts | 45° |
| 2026-05-08 02:28 | 45.85242 | -73.62657 | 27148 ft | 496 kts | 45° |
| 2026-05-08 02:28 | 45.87594 | -73.59045 | 26681 ft | 493 kts | 45° |
| 2026-05-08 02:29 | 45.89974 | -73.55382 | 26210 ft | 488 kts | 45° |
| 2026-05-08 02:29 | 45.92328 | -73.51795 | 25782 ft | 483 kts | 44° |
| 2026-05-08 02:29 | 45.94650 | -73.48281 | 25376 ft | 478 kts | 44° |
| 2026-05-08 02:29 | 45.96938 | -73.44823 | 24964 ft | 473 kts | 44° |
| 2026-05-08 02:30 | 45.99257 | -73.41311 | 24552 ft | 468 kts | 44° |
| 2026-05-08 02:30 | 46.01514 | -73.37887 | 24146 ft | 464 kts | 44° |
| 2026-05-08 02:30 | 46.03740 | -73.34501 | 23751 ft | 460 kts | 44° |
| 2026-05-08 02:30 | 46.05967 | -73.31109 | 23328 ft | 456 kts | 44° |
| 2026-05-08 02:31 | 46.08170 | -73.27748 | 22861 ft | 452 kts | 44° |
| 2026-05-08 02:31 | 46.10334 | -73.24441 | 22453 ft | 447 kts | 44° |
| 2026-05-08 02:31 | 46.12339 | -73.21374 | 22025 ft | 444 kts | 44° |
| 2026-05-08 02:31 | 46.14463 | -73.18120 | 21563 ft | 440 kts | 44° |
| 2026-05-08 02:32 | 46.16550 | -73.14919 | 21121 ft | 436 kts | 44° |
| 2026-05-08 02:32 | 46.18642 | -73.11708 | 20686 ft | 431 kts | 44° |
| 2026-05-08 02:32 | 46.20660 | -73.08607 | 20291 ft | 427 kts | 44° |
| 2026-05-08 02:32 | 46.22689 | -73.05486 | 19899 ft | 423 kts | 44° |
| 2026-05-08 02:33 | 46.24734 | -73.02337 | 19491 ft | 419 kts | 44° |
| 2026-05-08 02:33 | 46.26738 | -72.99248 | 19106 ft | 416 kts | 44° |
| 2026-05-08 02:33 | 46.28730 | -72.96174 | 18703 ft | 413 kts | 44° |
| 2026-05-08 02:33 | 46.30704 | -72.93124 | 18299 ft | 410 kts | 44° |
| 2026-05-08 02:34 | 46.32626 | -72.90150 | 17881 ft | 407 kts | 44° |
| 2026-05-08 02:34 | 46.34568 | -72.86995 | 17444 ft | 404 kts | 49° |
| 2026-05-08 02:34 | 46.36159 | -72.83655 | 17042 ft | 403 kts | 57° |
| 2026-05-08 02:34 | 46.37433 | -72.80015 | 16619 ft | 402 kts | 64° |
| 2026-05-08 02:35 | 46.38521 | -72.76272 | 16263 ft | 398 kts | 66° |
| 2026-05-08 02:35 | 46.39570 | -72.72518 | 15889 ft | 395 kts | 66° |
| 2026-05-08 02:35 | 46.40633 | -72.68728 | 15511 ft | 392 kts | 66° |
| 2026-05-08 02:35 | 46.41692 | -72.64994 | 15108 ft | 389 kts | 66° |
| 2026-05-08 02:36 | 46.42737 | -72.61339 | 14732 ft | 387 kts | 66° |
| 2026-05-08 02:36 | 46.43779 | -72.57707 | 14356 ft | 385 kts | 66° |
| 2026-05-08 02:36 | 46.44819 | -72.54079 | 14013 ft | 382 kts | 66° |
| 2026-05-08 02:36 | 46.45849 | -72.50482 | 13653 ft | 379 kts | 66° |
| 2026-05-08 02:37 | 46.46870 | -72.46910 | 13239 ft | 376 kts | 66° |
| 2026-05-08 02:37 | 46.47886 | -72.43347 | 12848 ft | 373 kts | 66° |
| 2026-05-08 02:37 | 46.48867 | -72.39904 | 12502 ft | 370 kts | 66° |
| 2026-05-08 02:37 | 46.49865 | -72.36395 | 12150 ft | 367 kts | 66° |
| 2026-05-08 02:38 | 46.50843 | -72.32956 | 11809 ft | 364 kts | 66° |
| 2026-05-08 02:38 | 46.51814 | -72.29534 | 11469 ft | 362 kts | 66° |
| 2026-05-08 02:38 | 46.52810 | -72.26018 | 11123 ft | 359 kts | 66° |
| 2026-05-08 02:38 | 46.53756 | -72.22673 | 10810 ft | 358 kts | 66° |
| 2026-05-08 02:39 | 46.54706 | -72.19306 | 10598 ft | 349 kts | 66° |
| 2026-05-08 02:39 | 46.55629 | -72.16034 | 10526 ft | 335 kts | 66° |
| 2026-05-08 02:39 | 46.56519 | -72.12872 | 10453 ft | 321 kts | 66° |
| 2026-05-08 02:39 | 46.57363 | -72.09870 | 10379 ft | 309 kts | 66° |
| 2026-05-08 02:40 | 46.58173 | -72.06983 | 10307 ft | 296 kts | 66° |
| 2026-05-08 02:40 | 46.58936 | -72.04262 | 10232 ft | 285 kts | 66° |
| 2026-05-08 02:40 | 46.59684 | -72.01597 | 10169 ft | 280 kts | 66° |
| 2026-05-08 02:40 | 46.60472 | -71.99049 | 10076 ft | 277 kts | 63° |
| 2026-05-08 02:41 | 46.61327 | -71.96488 | 9911 ft | 277 kts | 62° |
| 2026-05-08 02:41 | 46.62167 | -71.94000 | 9598 ft | 278 kts | 62° |
| 2026-05-08 02:41 | 46.63020 | -71.91471 | 9292 ft | 276 kts | 62° |
| 2026-05-08 02:41 | 46.63861 | -71.88971 | 9024 ft | 273 kts | 62° |
| 2026-05-08 02:42 | 46.64692 | -71.86493 | 8772 ft | 270 kts | 62° |
| 2026-05-08 02:42 | 46.65529 | -71.83991 | 8517 ft | 268 kts | 62° |
| 2026-05-08 02:42 | 46.66373 | -71.81464 | 8274 ft | 265 kts | 62° |
| 2026-05-08 02:42 | 46.67177 | -71.79055 | 8050 ft | 264 kts | 62° |
| 2026-05-08 02:43 | 46.67991 | -71.76616 | 7799 ft | 262 kts | 62° |
| 2026-05-08 02:43 | 46.68786 | -71.74231 | 7569 ft | 261 kts | 62° |
| 2026-05-08 02:43 | 46.69578 | -71.71850 | 7349 ft | 260 kts | 62° |
| 2026-05-08 02:43 | 46.70377 | -71.69446 | 7125 ft | 259 kts | 62° |
| 2026-05-08 02:44 | 46.70901 | -71.67868 | 6984 ft | 258 kts | 62° |
| 2026-05-08 02:44 | 46.71950 | -71.64718 | 6694 ft | 257 kts | 59° |
| 2026-05-08 02:44 | 46.72904 | -71.62502 | 6463 ft | 254 kts | 50° |
| 2026-05-08 02:44 | 46.74222 | -71.60361 | 6138 ft | 253 kts | 42° |
| 2026-05-08 02:45 | 46.75504 | -71.58542 | 5909 ft | 251 kts | 41° |
| 2026-05-08 02:45 | 46.76781 | -71.56761 | 5654 ft | 250 kts | 41° |
| 2026-05-08 02:45 | 46.77707 | -71.55460 | 5494 ft | 249 kts | 41° |
| 2026-05-08 02:45 | 46.79024 | -71.53593 | 5223 ft | 248 kts | 41° |
| 2026-05-08 02:46 | 46.80255 | -71.51835 | 5016 ft | 244 kts | 41° |
| 2026-05-08 02:46 | 46.81435 | -71.50140 | 4998 ft | 232 kts | 41° |
| 2026-05-08 02:46 | 46.82560 | -71.48521 | 5012 ft | 220 kts | 41° |
| 2026-05-08 02:46 | 46.83605 | -71.47014 | 5008 ft | 203 kts | 41° |
| 2026-05-08 02:47 | 46.84601 | -71.45587 | 4986 ft | 196 kts | 40° |
| 2026-05-08 02:47 | 46.85584 | -71.44183 | 4735 ft | 198 kts | 40° |
| 2026-05-08 02:47 | 46.86574 | -71.42771 | 4354 ft | 199 kts | 40° |
| 2026-05-08 02:47 | 46.87570 | -71.41344 | 4009 ft | 197 kts | 40° |
| 2026-05-08 02:48 | 46.88541 | -71.39951 | 3698 ft | 194 kts | 40° |
| 2026-05-08 02:48 | 46.89503 | -71.38556 | 3403 ft | 191 kts | 45° |
| 2026-05-08 02:48 | 46.90181 | -71.36883 | 3175 ft | 188 kts | 68° |
| 2026-05-08 02:48 | 46.90381 | -71.35027 | 2956 ft | 183 kts | 90° |
| 2026-05-08 02:49 | 46.90114 | -71.33226 | 2743 ft | 180 kts | 113° |
| 2026-05-08 02:49 | 46.89432 | -71.31689 | 2549 ft | 179 kts | 135° |
| 2026-05-08 02:49 | 46.88445 | -71.30613 | 2306 ft | 176 kts | 156° |
| 2026-05-08 02:49 | 46.87320 | -71.30114 | 2057 ft | 164 kts | 177° |
| 2026-05-08 02:50 | 46.86204 | -71.30180 | 1859 ft | 159 kts | 196° |
| 2026-05-08 02:50 | 46.85170 | -71.30744 | 1657 ft | 155 kts | 213° |
| 2026-05-08 02:50 | 46.84330 | -71.31695 | 1437 ft | 152 kts | 226° |
| 2026-05-08 02:50 | 46.83578 | -71.32806 | 1222 ft | 152 kts | 227° |
| 2026-05-08 02:51 | 46.82819 | -71.33948 | 1022 ft | 151 kts | 227° |
| 2026-05-08 02:51 | 46.82086 | -71.35033 | 811 ft | 148 kts | 226° |
| 2026-05-08 02:51 | 46.81360 | -71.36094 | 632 ft | 147 kts | 226° |
| 2026-05-08 02:51 | 46.80641 | -71.37140 | 424 ft | 144 kts | 228° |
| 2026-05-08 02:52 | 46.79942 | -71.38185 | 269 ft | 143 kts | 227° |
| 2026-05-08 02:52 | 46.79344 | -71.39054 | 261 ft | 92 kts | 225° |
| 2026-05-08 02:52 | 46.79008 | -71.39534 | 261 ft | 38 kts | 224° |
| 2026-05-08 02:52 | 46.78895 | -71.39693 | 261 ft | 11 kts | 213° |
| 2026-05-08 02:53 | 46.78848 | -71.39630 | 261 ft | 13 kts | 100° |
| 2026-05-08 02:53 | 46.78834 | -71.39489 | 261 ft | 15 kts | 98° |
| 2026-05-08 02:53 | 46.78876 | -71.39344 | 261 ft | 18 kts | 38° |
| 2026-05-08 02:53 | 46.78984 | -71.39221 | 261 ft | 21 kts | 43° |
| 2026-05-08 02:54 | 46.79097 | -71.39063 | 261 ft | 24 kts | 45° |
| 2026-05-08 02:54 | 46.79217 | -71.38883 | 261 ft | 26 kts | 46° |
| 2026-05-08 02:54 | 46.79350 | -71.38693 | 261 ft | 24 kts | 44° |
| 2026-05-08 02:54 | 46.79396 | -71.38586 | 261 ft | 10 kts | 126° |
| 2026-05-08 02:55 | 46.79348 | -71.38515 | 261 ft | 9 kts | 119° |
| 2026-05-08 02:55 | 46.79327 | -71.38448 | 261 ft | 0 kts | 115° |
| 2026-05-08 02:55 | 46.79327 | -71.38449 | 261 ft | 0 kts | 115° |